Time;durP1;ratioP1;P1;durP2;ratioP2;P2;SDS_P1;SDS_P2;PMS_P1;PMS_P2;Temp;Humidity;BMP_temperature;BMP_pressure;BME280_temperature;BME280_humidity;BME280_pressure;Samples;Min_cycle;Max_cycle;Signal;HPM_P1;HPM_P2
2023/06/20 00:01:58;;;;;;;14.20;7.57;;;;;;;23.04;48.90;99101.53;4355598;32;34863;-82
2023/06/20 00:04:26;;;;;;;10.40;7.28;;;;;;;23.06;48.71;99104.13;4358831;32;33630;-81
2023/06/20 00:06:53;;;;;;;9.20;7.32;;;;;;;23.10;48.55;99121.59;4357043;32;33809;-82
2023/06/20 00:09:22;;;;;;;11.12;6.80;;;;;;;23.22;48.11;99109.66;4357729;32;34080;-81
2023/06/20 00:11:50;;;;;;;9.43;7.00;;;;;;;;;;4358164;32;33747;-81
2023/06/20 00:14:17;;;;;;;9.15;7.15;;;;;;;23.23;48.35;99114.91;4356615;32;33944;-85
2023/06/20 00:16:44;;;;;;;10.07;6.95;;;;;;;23.13;48.61;99110.91;4357905;32;33816;-86
2023/06/20 00:19:13;;;;;;;9.52;7.05;;;;;;;22.94;48.83;99117.81;4359003;32;34136;-82
2023/06/20 00:21:42;;;;;;;11.15;7.18;;;;;;;23.06;48.76;99125.28;4356097;32;34977;-83
2023/06/20 00:24:09;;;;;;;9.77;7.70;;;;;;;23.09;48.57;99119.00;4345593;32;32807;-85
2023/06/20 00:26:38;;;;;;;9.95;7.25;;;;;;;23.11;48.85;99111.88;4359431;32;34148;-87
2023/06/20 00:29:05;;;;;;;10.80;7.45;;;;;;;23.03;48.70;99125.37;4344617;32;34608;-83
2023/06/20 00:31:34;;;;;;;8.98;6.53;;;;;;;22.94;48.84;99123.09;4358090;32;34832;-82
2023/06/20 00:34:02;;;;;;;9.55;6.97;;;;;;;22.93;48.71;99124.91;4357645;32;33748;-89
2023/06/20 00:36:29;;;;;;;9.75;6.82;;;;;;;22.93;48.41;99118.75;4357009;32;34587;-83
2023/06/20 00:38:56;;;;;;;9.25;6.87;;;;;;;22.89;48.40;99122.41;4358364;32;34831;-82
2023/06/20 00:41:24;;;;;;;9.60;6.95;;;;;;;22.88;48.33;99124.19;4359659;32;33788;-82
2023/06/20 00:43:52;;;;;;;9.55;7.05;;;;;;;22.88;48.57;99118.00;4360384;32;34634;-82
2023/06/20 00:46:23;;;;;;;8.90;6.57;;;;;;;22.76;48.87;99120.19;4359749;32;36424;-87
2023/06/20 00:48:54;;;;;;;10.63;7.60;;;;;;;22.63;48.96;99126.88;4344879;32;33971;-82
2023/06/20 00:51:22;;;;;;;9.23;6.90;;;;;;;22.63;49.07;99129.53;4345399;32;33768;-83
2023/06/20 00:53:50;;;;;;;10.18;6.82;;;;;;;22.59;49.14;99125.28;4334960;32;34128;-82
2023/06/20 00:56:18;;;;;;;11.70;6.87;;;;;;;22.60;49.26;99124.34;4362486;32;33857;-82
2023/06/20 00:58:46;;;;;;;10.63;7.30;;;;;;;22.70;49.02;99124.87;4353816;32;34397;-82
2023/06/20 01:01:16;;;;;;;9.93;7.40;;;;;;;22.61;49.35;99123.41;4360479;32;34078;-82
2023/06/20 01:03:46;;;;;;;10.00;8.13;;;;;;;22.54;49.42;99119.28;4360638;32;33270;-84
2023/06/20 01:06:42;;;;;;;10.18;7.85;;;;;;;22.60;49.33;99126.97;4346253;32;34466;-81
2023/06/20 01:09:22;;;;;;;11.93;6.95;;;;;;;22.65;49.50;99119.75;4325029;32;34004;-82
2023/06/20 01:12:08;;;;;;;10.30;7.57;;;;;;;22.46;49.89;99121.34;4359208;32;34633;-82
2023/06/20 01:14:52;;;;;;;10.32;7.32;;;;;;;22.40;50.20;99121.59;4355841;32;33714;-82
2023/06/20 01:17:36;;;;;;;10.35;8.30;;;;;;;22.34;50.25;99128.78;4359257;32;34847;-86
2023/06/20 01:20:21;;;;;;;9.43;7.55;;;;;;;22.35;50.35;99132.31;4357014;32;35113;-86
2023/06/20 01:22:58;;;;;;;10.75;8.32;;;;;;;22.32;50.43;99129.78;4345574;32;32803;-87
2023/06/20 01:25:32;;;;;;;9.98;8.13;;;;;;;22.28;50.50;99125.53;4360359;32;34310;-82
2023/06/20 01:28:22;;;;;;;10.48;7.32;;;;;;;22.17;50.64;99132.97;4346198;32;34668;-83
2023/06/20 01:31:01;;;;;;;11.57;7.95;;;;;;;22.29;50.65;99129.88;4346423;32;34811;-86
2023/06/20 01:33:34;;;;;;;12.23;6.93;;;;;;;22.16;51.03;99132.09;4335775;32;34612;-82
2023/06/20 01:36:04;;;;;;;8.85;7.35;;;;;;;22.03;51.30;99128.12;4357325;32;33729;-83
2023/06/20 01:38:32;;;;;;;10.60;8.13;;;;;;;22.11;51.17;99126.06;4358348;32;33912;-83
2023/06/20 01:41:01;;;;;;;10.70;8.13;;;;;;;22.04;51.38;99124.56;4358104;32;34696;-85
2023/06/20 01:43:30;;;;;;;10.45;8.07;;;;;;;21.98;51.67;99127.41;4344134;32;34116;-81
2023/06/20 01:46:01;;;;;;;9.80;7.70;;;;;;;22.04;51.65;99122.78;4344112;32;34784;-82
2023/06/20 01:48:31;;;;;;;11.32;8.88;;;;;;;22.00;51.74;99120.28;4343990;32;33909;-81
2023/06/20 01:51:00;;;;;;;10.25;7.80;;;;;;;21.67;52.64;99123.19;4344427;32;34873;-82
2023/06/20 01:53:29;;;;;;;10.88;7.82;;;;;;;21.50;53.20;99121.06;4344902;32;34090;-83
2023/06/20 01:56:03;;;;;;;11.02;7.47;;;;;;;21.64;52.94;99117.13;4358922;32;33665;-82
2023/06/20 01:58:32;;;;;;;10.45;7.93;;;;;;;21.73;52.48;99115.03;4347883;32;34685;-82
2023/06/20 02:01:00;;;;;;;10.13;8.02;;;;;;;21.68;52.72;99111.69;4334301;32;34887;-86
2023/06/20 02:03:28;;;;;;;13.23;8.20;;;;;;;21.69;52.43;99121.34;4357413;32;34990;-81
2023/06/20 02:05:57;;;;;;;10.20;8.13;;;;;;;21.66;52.80;99108.25;4344917;32;34545;-82
2023/06/20 02:08:26;;;;;;;10.32;7.62;;;;;;;21.68;52.62;99109.06;4357849;32;33758;-85
2023/06/20 02:10:56;;;;;;;11.80;7.97;;;;;;;21.48;53.11;99107.09;4359155;32;33951;-82
2023/06/20 02:13:24;;;;;;;11.35;8.18;;;;;;;21.56;53.20;99112.13;4344170;32;34393;-81
2023/06/20 02:15:52;;;;;;;9.48;7.25;;;;;;;21.57;53.11;99117.31;4343676;32;33681;-86
2023/06/20 02:18:20;;;;;;;12.57;8.30;;;;;;;21.42;53.24;99116.97;4349515;32;33402;-82
2023/06/20 02:20:53;;;;;;;10.70;7.62;;;;;;;21.40;53.16;99122.28;4349107;32;35033;-83
2023/06/20 02:23:31;;;;;;;10.68;7.22;;;;;;;21.52;52.91;99118.41;4359203;32;34183;-83
2023/06/20 02:26:09;;;;;;;11.40;7.45;;;;;;;21.57;52.25;99113.84;4328463;32;33250;-82
2023/06/20 02:28:40;;;;;;;12.37;8.23;;;;;;;21.56;52.07;99120.03;4347590;32;34016;-88
2023/06/20 02:31:09;;;;;;;9.70;7.65;;;;;;;21.57;52.08;99121.75;4347276;32;34281;-82
2023/06/20 02:33:37;;;;;;;12.80;7.47;;;;;;;21.64;51.72;99123.28;4360532;32;33848;-83
2023/06/20 02:36:06;;;;;;;9.98;7.75;;;;;;;21.57;51.89;99133.16;4360450;32;33481;-82
2023/06/20 02:38:34;;;;;;;12.80;7.90;;;;;;;21.79;51.55;99127.19;4347208;32;33644;-82
2023/06/20 02:41:03;;;;;;;10.15;8.05;;;;;;;21.55;52.26;99140.25;4360555;32;33739;-82
2023/06/20 02:43:31;;;;;;;9.48;7.47;;;;;;;21.47;53.11;99139.63;4359338;32;34921;-86
2023/06/20 02:46:06;;;;;;;10.93;8.15;;;;;;;21.71;52.46;99145.06;4359398;32;33647;-83
2023/06/20 02:48:47;;;;;;;10.98;7.90;;;;;;;21.58;52.86;99140.16;4343877;32;34089;-87
2023/06/20 02:51:27;;;;;;;11.82;8.68;;;;;;;21.60;52.68;99126.94;4345196;32;33962;-85
2023/06/20 02:54:16;;;;;;;10.35;7.47;;;;;;;21.65;52.39;99130.28;4344812;32;33859;-86
2023/06/20 02:56:47;;;;;;;10.30;8.00;;;;;;;21.59;52.43;99125.19;4355953;32;33127;-84
2023/06/20 02:59:15;;;;;;;11.35;8.00;;;;;;;21.49;52.67;99126.41;4343171;32;33070;-87
2023/06/20 03:01:46;;;;;;;10.32;7.87;;;;;;;21.44;52.96;99134.47;4342692;32;33680;-81
2023/06/20 03:04:15;;;;;;;11.48;8.18;;;;;;;21.38;53.30;99132.03;4357103;32;35073;-81
2023/06/20 03:06:46;;;;;;;13.02;7.80;;;;;;;21.43;53.21;99142.44;4341874;32;34494;-86
2023/06/20 03:09:14;;;;;;;10.20;8.35;;;;;;;21.44;53.14;99136.22;4343534;32;34682;-81
2023/06/20 03:11:42;;;;;;;11.75;8.50;;;;;;;21.38;52.80;99143.44;4342953;32;34832;-82
2023/06/20 03:14:13;;;;;;;9.93;8.07;;;;;;;21.48;52.85;99148.41;4356836;32;34114;-81
2023/06/20 03:16:43;;;;;;;11.20;8.23;;;;;;;21.35;52.54;99148.78;4352324;32;33634;-81
2023/06/20 03:19:11;;;;;;;11.40;8.27;;;;;;;21.26;52.97;99150.84;4356335;32;33821;-82
2023/06/20 03:21:40;;;;;;;10.82;9.27;;;;;;;21.49;52.24;99152.78;4358212;32;34229;-85
2023/06/20 03:24:08;;;;;;;11.00;8.18;;;;;;;21.58;52.10;99149.84;4358017;32;33849;-88
2023/06/20 03:26:37;;;;;;;10.80;7.85;;;;;;;21.67;52.12;99151.31;4357990;32;34373;-82
2023/06/20 03:29:05;;;;;;;12.68;7.97;;;;;;;21.71;51.91;99159.09;4358644;32;33498;-83
2023/06/20 03:31:33;;;;;;;10.43;8.07;;;;;;;21.72;51.95;99158.19;4357694;32;34238;-81
2023/06/20 03:34:01;;;;;;;11.52;8.40;;;;;;;21.71;52.11;99155.59;4358108;32;33740;-82
2023/06/20 03:36:30;;;;;;;10.55;8.13;;;;;;;21.78;52.30;99160.63;4358764;32;33248;-81
2023/06/20 03:38:57;;;;;;;10.98;8.43;;;;;;;21.77;52.12;99161.53;4358961;32;34056;-82
2023/06/20 03:41:26;;;;;;;11.52;8.40;;;;;;;21.81;52.34;99163.16;4357052;32;33858;-81
2023/06/20 03:43:55;;;;;;;9.93;8.48;;;;;;;21.87;52.25;99157.66;4359978;32;34922;-86
2023/06/20 03:46:23;;;;;;;11.38;8.80;;;;;;;21.96;52.27;99171.47;4358404;32;34385;-81
2023/06/20 03:48:50;;;;;;;10.02;7.90;;;;;;;21.92;52.42;99173.34;4359103;32;34747;-81
2023/06/20 03:51:18;;;;;;;12.15;8.00;;;;;;;22.00;53.13;99173.09;4343959;32;34102;-81
2023/06/20 03:53:46;;;;;;;9.27;7.47;;;;;;;22.22;52.77;99174.12;4359967;32;34010;-88
2023/06/20 03:56:14;;;;;;;12.18;8.27;;;;;;;22.42;51.94;99172.56;4355655;32;33538;-86
2023/06/20 03:58:41;;;;;;;11.40;7.57;;;;;;;22.51;52.04;99177.53;4358225;32;33795;-86
2023/06/20 04:01:08;;;;;;;9.63;7.85;;;;;;;22.72;51.67;99178.53;4344195;32;34210;-82
2023/06/20 04:03:36;;;;;;;11.98;7.57;;;;;;;22.97;51.24;99173.22;4357286;32;34172;-86
2023/06/20 04:06:04;;;;;;;10.15;7.45;;;;;;;23.04;51.24;99172.09;4358313;32;33303;-82
2023/06/20 04:08:31;;;;;;;11.73;8.02;;;;;;;23.24;51.08;99177.47;4358182;32;32454;-82
2023/06/20 04:10:59;;;;;;;11.82;8.23;;;;;;;23.28;51.03;99181.72;4345296;32;34775;-86
2023/06/20 04:13:28;;;;;;;9.43;7.40;;;;;;;23.35;51.08;99178.84;4359195;32;34251;-83
2023/06/20 04:15:55;;;;;;;10.32;7.62;;;;;;;23.50;50.34;99157.91;4354602;32;34323;-81
2023/06/20 04:18:23;;;;;;;10.40;8.07;;;;;;;23.54;51.19;99163.94;4345273;32;33994;-82
2023/06/20 04:20:52;;;;;;;9.85;7.40;;;;;;;23.74;51.15;99161.38;4357607;32;34203;-82
2023/06/20 04:23:20;;;;;;;10.32;7.93;;;;;;;24.01;50.51;99156.72;4343904;32;34753;-83
2023/06/20 04:25:48;;;;;;;11.25;7.75;;;;;;;24.36;49.32;99158.78;4358059;32;34235;-86
2023/06/20 04:28:17;;;;;;;10.88;7.28;;;;;;;24.55;49.50;99156.19;4356940;32;33654;-86
2023/06/20 04:30:45;;;;;;;13.35;8.07;;;;;;;24.63;49.68;99154.09;4358300;32;33884;-83
2023/06/20 04:33:13;;;;;;;9.15;6.78;;;;;;;24.61;50.21;99154.16;4341319;32;34322;-82
2023/06/20 04:35:41;;;;;;;9.75;7.40;;;;;;;24.84;49.66;99161.06;4357253;32;34289;-82
2023/06/20 04:38:09;;;;;;;19.10;7.55;;;;;;;24.76;49.85;99164.06;4357541;32;33964;-90
2023/06/20 04:40:37;;;;;;;10.82;7.35;;;;;;;24.85;50.27;99160.16;4363407;32;32682;-82
2023/06/20 04:43:05;;;;;;;12.10;8.63;;;;;;;24.63;51.67;99162.91;4357948;32;33985;-81
2023/06/20 04:45:33;;;;;;;10.60;8.45;;;;;;;24.47;50.43;99160.09;4359242;32;34174;-82
2023/06/20 04:48:02;;;;;;;12.95;8.57;;;;;;;24.22;51.89;99162.91;4359787;32;33742;-82
2023/06/20 04:50:29;;;;;;;11.88;8.95;;;;;;;24.42;51.16;99169.16;4360440;32;34134;-81
2023/06/20 04:52:57;;;;;;;13.23;8.15;;;;;;;24.54;51.39;99167.75;4359475;32;33329;-87
2023/06/20 04:55:26;;;;;;;11.85;8.07;;;;;;;24.43;51.75;99176.16;4346338;32;33833;-82
2023/06/20 04:57:54;;;;;;;10.65;7.90;;;;;;;24.28;49.93;99173.25;4360668;32;34650;-82
2023/06/20 05:00:21;;;;;;;11.10;7.65;;;;;;;24.34;48.71;99181.84;4358893;32;33975;-82
2023/06/20 05:02:49;;;;;;;11.25;7.35;;;;;;;24.47;48.07;99172.44;4359779;32;34063;-83
2023/06/20 05:05:19;;;;;;;11.40;8.18;;;;;;;24.76;46.78;99173.81;4359798;32;34553;-82
2023/06/20 05:07:48;;;;;;;12.77;8.25;;;;;;;24.67;47.33;99180.41;4320753;32;32489;-83
2023/06/20 05:10:16;;;;;;;10.23;7.18;;;;;;;24.61;47.28;99185.09;4345394;32;33422;-84
2023/06/20 05:12:43;;;;;;;11.32;8.15;;;;;;;24.89;47.03;99176.75;4358239;32;33524;-82
2023/06/20 05:15:11;;;;;;;12.52;7.75;;;;;;;25.10;46.76;99173.16;4345559;32;33073;-82
2023/06/20 05:17:40;;;;;;;11.75;7.45;;;;;;;25.11;46.27;99177.53;4360956;32;34614;-81
2023/06/20 05:20:08;;;;;;;12.25;8.63;;;;;;;25.14;46.89;99179.19;4361006;32;34151;-83
2023/06/20 05:22:36;;;;;;;11.63;7.80;;;;;;;25.32;47.01;99183.63;4347574;32;32953;-85
2023/06/20 05:25:04;;;;;;;11.23;7.97;;;;;;;25.46;46.98;99183.84;4360263;32;33856;-91
2023/06/20 05:27:32;;;;;;;11.63;8.73;;;;;;;25.58;47.05;99184.19;4347238;32;34874;-81
2023/06/20 05:29:59;;;;;;;12.10;7.70;;;;;;;25.51;47.47;99185.41;4340478;32;33315;-82
2023/06/20 05:32:27;;;;;;;12.20;8.75;;;;;;;25.72;46.63;99182.59;4347283;32;34203;-90
2023/06/20 05:34:55;;;;;;;15.80;8.40;;;;;;;25.72;47.00;99185.25;4360980;32;34562;-90
2023/06/20 05:37:22;;;;;;;11.40;8.48;;;;;;;26.10;45.33;99181.62;4360928;32;34709;-82
2023/06/20 05:39:50;;;;;;;13.32;8.00;;;;;;;26.03;46.17;99186.41;4360550;32;34921;-85
2023/06/20 05:42:17;;;;;;;11.27;8.65;;;;;;;26.09;46.49;99190.53;4360655;32;34060;-82
2023/06/20 05:44:45;;;;;;;15.65;8.75;;;;;;;26.31;45.03;99187.66;4360906;32;33518;-82
2023/06/20 05:47:17;;;;;;;16.33;8.77;;;;;;;26.08;45.99;99197.66;4360788;32;34639;-83
2023/06/20 05:49:45;;;;;;;14.50;8.52;;;;;;;25.80;46.77;99202.59;4330572;32;34998;-83
2023/06/20 05:52:13;;;;;;;17.00;9.27;;;;;;;25.65;47.86;99205.06;4338381;32;32802;-82
2023/06/20 05:54:45;;;;;;;13.62;8.10;;;;;;;25.82;47.55;99200.75;4342359;32;33718;-83
2023/06/20 05:57:13;;;;;;;11.35;7.90;;;;;;;25.72;47.77;99193.22;4345811;32;33172;-83
2023/06/20 05:59:40;;;;;;;13.48;8.27;;;;;;;25.67;48.15;99203.16;4360898;32;34190;-83
2023/06/20 06:02:07;;;;;;;12.88;8.43;;;;;;;25.82;47.21;99195.44;4359189;32;33452;-83
2023/06/20 06:04:35;;;;;;;12.25;8.13;;;;;;;25.46;47.11;99206.88;4360830;32;34443;-82
2023/06/20 06:07:07;;;;;;;11.10;8.50;;;;;;;25.43;47.51;99204.38;4359660;32;34830;-83
2023/06/20 06:09:34;;;;;;;12.98;8.38;;;;;;;25.84;46.49;99202.41;4360990;32;33982;-82
2023/06/20 06:12:03;;;;;;;10.10;7.75;;;;;;;25.92;47.10;99199.38;4347996;32;34860;-84
2023/06/20 06:14:30;;;;;;;10.18;7.53;;;;;;;26.02;47.37;99203.25;4359187;32;34514;-83
2023/06/20 06:16:58;;;;;;;12.98;7.82;;;;;;;25.87;47.55;99201.37;4359054;32;34075;-88
2023/06/20 06:19:25;;;;;;;12.82;7.93;;;;;;;25.97;46.66;99207.94;4343783;32;33999;-86
2023/06/20 06:21:53;;;;;;;13.02;8.02;;;;;;;26.31;45.88;99201.78;4358402;32;34153;-86
2023/06/20 06:24:21;;;;;;;11.38;7.12;;;;;;;26.63;45.21;99207.28;4357859;32;32071;-83
2023/06/20 06:26:49;;;;;;;14.00;7.55;;;;;;;26.56;43.85;99209.41;4356839;32;33964;-80
2023/06/20 06:29:18;;;;;;;11.90;7.10;;;;;;;26.77;43.13;99214.53;4358544;32;34964;-82
2023/06/20 06:31:45;;;;;;;14.30;8.00;;;;;;;26.86;44.13;99216.72;4357160;32;33258;-80
2023/06/20 06:34:18;;;;;;;10.15;7.65;;;;;;;27.20;42.75;99222.87;4358374;32;34219;-88
2023/06/20 06:36:48;;;;;;;10.48;6.70;;;;;;;26.84;42.56;99222.09;4346582;32;33691;-86
2023/06/20 06:39:17;;;;;;;10.88;7.30;;;;;;;26.75;44.06;99219.94;4359793;32;35196;-81
2023/06/20 06:41:47;;;;;;;11.98;7.78;;;;;;;27.17;42.36;99219.47;4355314;32;34829;-85
2023/06/20 06:44:15;;;;;;;14.20;7.32;;;;;;;27.28;41.93;99218.03;4344560;32;34672;-85
2023/06/20 06:46:43;;;;;;;13.93;7.28;;;;;;;27.74;42.96;99216.34;4359075;32;33568;-84
2023/06/20 06:49:10;;;;;;;10.27;6.95;;;;;;;27.95;42.11;99211.56;4357599;32;35088;-81
2023/06/20 06:51:38;;;;;;;14.15;6.78;;;;;;;28.13;41.11;99221.16;4358640;32;34152;-81
2023/06/20 06:54:06;;;;;;;11.93;7.28;;;;;;;27.27;41.38;99221.63;4359060;32;33825;-82
2023/06/20 06:56:34;;;;;;;8.98;7.03;;;;;;;27.51;41.09;99217.63;4359144;32;35439;-85
2023/06/20 06:59:02;;;;;;;14.23;8.02;;;;;;;27.13;41.81;99222.38;4357137;32;33848;-86
2023/06/20 07:01:30;;;;;;;13.30;7.57;;;;;;;26.85;42.36;99217.63;4358128;32;34624;-88
2023/06/20 07:03:57;;;;;;;15.35;7.97;;;;;;;27.36;41.12;99218.47;4358089;32;34238;-82
2023/06/20 07:06:25;;;;;;;12.82;7.18;;;;;;;26.84;43.16;99226.56;4343963;32;33671;-81
2023/06/20 07:08:53;;;;;;;17.17;7.85;;;;;;;27.47;42.58;99221.41;4354080;32;33787;-80
2023/06/20 07:11:22;;;;;;;11.30;7.30;;;;;;;27.11;42.22;99234.91;4354476;32;35147;-86
2023/06/20 07:13:49;;;;;;;11.07;7.40;;;;;;;27.57;43.10;99235.88;4344779;32;33831;-86
2023/06/20 07:16:17;;;;;;;11.50;7.07;;;;;;;27.75;41.92;99227.84;4358606;32;34636;-86
2023/06/20 07:18:44;;;;;;;11.60;7.75;;;;;;;27.55;40.35;99240.47;4356315;32;33869;-79
2023/06/20 07:21:12;;;;;;;11.80;7.40;;;;;;;27.49;40.95;99240.78;4358185;32;34143;-81
2023/06/20 07:23:40;;;;;;;10.63;7.60;;;;;;;27.15;42.15;99247.09;4344483;32;33699;-81
2023/06/20 07:26:08;;;;;;;13.48;7.87;;;;;;;27.84;42.57;99245.97;4356813;32;34830;-82
2023/06/20 07:28:36;;;;;;;12.18;7.30;;;;;;;28.42;41.97;99247.97;4342640;32;33925;-81
2023/06/20 07:31:07;;;;;;;11.43;7.40;;;;;;;28.11;39.99;99249.75;4355026;32;34161;-80
2023/06/20 07:33:35;;;;;;;11.85;6.72;;;;;;;27.69;40.35;99246.81;4347197;32;33446;-85
2023/06/20 07:36:03;;;;;;;11.25;7.95;;;;;;;27.96;41.32;99245.28;4374717;32;34419;-80
2023/06/20 07:38:31;;;;;;;13.13;6.93;;;;;;;27.94;39.90;99244.50;4374714;32;34605;-82
2023/06/20 07:40:59;;;;;;;13.45;6.97;;;;;;;28.01;40.26;99253.87;4363529;32;34745;-83
2023/06/20 07:43:26;;;;;;;9.93;7.22;;;;;;;27.70;41.21;99253.87;4356849;32;33844;-79
2023/06/20 07:45:55;;;;;;;12.10;7.95;;;;;;;27.99;39.74;99255.75;4343197;32;34799;-81
2023/06/20 07:48:24;;;;;;;19.62;8.02;;;;;;;27.85;40.80;99253.03;4359379;32;34013;-82
2023/06/20 07:50:52;;;;;;;13.48;7.65;;;;;;;28.31;39.81;99247.72;4357340;32;34065;-82
2023/06/20 07:53:19;;;;;;;12.00;8.30;;;;;;;28.62;40.47;99244.97;4355815;32;32822;-81
2023/06/20 07:55:48;;;;;;;14.05;7.32;;;;;;;28.31;41.73;99258.38;4353033;32;33674;-82
2023/06/20 07:58:19;;;;;;;14.63;7.80;;;;;;;28.17;40.89;99251.16;4357477;32;34106;-81
2023/06/20 08:00:47;;;;;;;15.65;7.37;;;;;;;28.56;39.74;99256.00;4354422;32;33849;-84
2023/06/20 08:03:14;;;;;;;13.75;8.27;;;;;;;29.04;39.49;99248.66;4358946;32;33704;-83
2023/06/20 08:05:42;;;;;;;10.70;7.60;;;;;;;29.14;38.11;99246.28;4355538;32;34406;-83
2023/06/20 08:08:10;;;;;;;10.20;7.37;;;;;;;29.34;39.16;99253.03;4357271;32;34825;-81
2023/06/20 08:10:37;;;;;;;12.25;7.20;;;;;;;29.21;37.64;99254.75;4358334;32;34215;-82
2023/06/20 08:13:05;;;;;;;14.57;7.12;;;;;;;29.36;38.93;99255.59;4355409;32;33815;-83
2023/06/20 08:15:33;;;;;;;10.98;7.70;;;;;;;29.01;39.85;99254.19;4357425;32;34712;-82
2023/06/20 08:18:00;;;;;;;12.57;7.75;;;;;;;29.40;38.80;99247.31;4356797;32;34300;-82
2023/06/20 08:20:28;;;;;;;13.27;8.50;;;;;;;29.43;38.03;99249.78;4360575;32;33639;-82
2023/06/20 08:22:56;;;;;;;14.40;8.40;;;;;;;29.58;38.13;99250.62;4357518;32;34689;-80
2023/06/20 08:25:23;;;;;;;11.70;6.87;;;;;;;29.47;38.53;99251.31;4356097;32;34002;-82
2023/06/20 08:27:51;;;;;;;15.18;7.15;;;;;;;29.97;39.02;99257.06;4361383;32;34150;-80
2023/06/20 08:30:36;;;;;;;13.30;6.90;;;;;;;30.24;36.89;99257.91;4360205;32;35086;-81
2023/06/20 08:33:04;;;;;;;14.27;8.05;;;;;;;30.52;36.70;99259.56;4360182;32;33531;-82
2023/06/20 08:35:31;;;;;;;10.52;7.37;;;;;;;29.76;37.37;99246.78;4360858;32;33909;-83
2023/06/20 08:37:59;;;;;;;11.90;7.78;;;;;;;29.91;37.17;99255.63;4361213;32;33686;-83
2023/06/20 08:40:27;;;;;;;10.77;7.28;;;;;;;30.11;38.08;99253.44;4347361;32;35104;-83
2023/06/20 08:42:55;;;;;;;18.35;7.00;;;;;;;30.15;37.43;99249.59;4360537;32;33875;-82
2023/06/20 08:45:23;;;;;;;11.05;6.47;;;;;;;30.26;35.34;99247.09;4347823;32;34785;-82
2023/06/20 08:47:51;;;;;;;11.70;6.72;;;;;;;30.84;35.79;99253.00;4347446;32;32743;-81
2023/06/20 08:50:18;;;;;;;11.63;6.37;;;;;;;31.07;35.46;99249.59;4347494;32;33638;-80
2023/06/20 08:52:47;;;;;;;12.32;7.62;;;;;;;30.16;34.24;99249.56;4361130;32;33290;-81
2023/06/20 08:55:15;;;;;;;9.18;6.87;;;;;;;30.71;34.46;99240.44;4347720;32;33995;-81
2023/06/20 08:57:46;;;;;;;14.87;7.85;;;;;;;31.21;35.84;99245.91;4347618;32;35292;-81
2023/06/20 09:00:20;;;;;;;12.80;7.47;;;;;;;30.67;35.20;99240.75;4347514;32;35119;-81
2023/06/20 09:02:52;;;;;;;10.88;6.68;;;;;;;30.68;35.12;99245.16;4345017;33;33520;-81
2023/06/20 09:05:20;;;;;;;11.70;6.15;;;;;;;30.96;35.84;99239.63;4347258;32;34809;-82
2023/06/20 09:07:51;;;;;;;8.93;5.55;;;;;;;30.79;33.69;99245.28;4361143;32;34197;-86
2023/06/20 09:10:21;;;;;;;10.30;6.65;;;;;;;30.47;34.52;99234.97;4357866;32;33927;-83
2023/06/20 09:12:56;;;;;;;9.45;6.32;;;;;;;30.81;34.01;99243.38;4360829;32;33777;-82
2023/06/20 09:15:27;;;;;;;;;;;;;;;31.02;33.95;99235.66;4346797;32;33841;-86
2023/06/20 09:17:58;;;;;;;10.38;6.65;;;;;;;30.80;33.50;99247.03;4346667;32;34469;-84
2023/06/20 09:20:27;;;;;;;12.40;6.43;;;;;;;30.88;34.08;99241.16;4360510;32;35418;-80
2023/06/20 09:22:56;;;;;;;13.35;7.72;;;;;;;30.89;34.51;99245.53;4346911;32;33828;-80
2023/06/20 09:25:25;;;;;;;10.13;6.22;;;;;;;30.59;33.67;99240.44;4360462;32;34646;-84
2023/06/20 09:27:53;;;;;;;11.80;6.47;;;;;;;30.54;34.28;99244.28;4360169;32;34760;-81
2023/06/20 09:30:21;;;;;;;10.18;6.80;;;;;;;30.81;33.31;99247.88;4347048;32;34047;-79
2023/06/20 09:32:52;;;;;;;35.05;7.90;;;;;;;30.79;33.61;99250.66;4360526;32;33630;-80
2023/06/20 09:35:20;;;;;;;9.35;6.10;;;;;;;31.01;35.05;99250.00;4359439;32;34819;-85
2023/06/20 09:37:51;;;;;;;11.00;6.57;;;;;;;31.33;33.52;99242.41;4345623;32;33764;-81
2023/06/20 09:40:19;;;;;;;9.85;6.22;;;;;;;31.50;33.18;99239.37;4345496;32;34798;-80
2023/06/20 09:42:47;;;;;;;11.48;6.03;;;;;;;31.61;33.67;99246.63;4333704;32;32876;-88
2023/06/20 09:45:16;;;;;;;11.88;6.90;;;;;;;32.09;31.25;99230.59;4344864;32;36270;-86
2023/06/20 09:47:44;;;;;;;10.07;6.03;;;;;;;31.84;31.19;99250.31;4358499;32;34348;-85
2023/06/20 09:50:18;;;;;;;14.80;7.03;;;;;;;31.83;31.34;99256.63;4345745;32;33762;-80
2023/06/20 09:53:04;;;;;;;9.30;6.00;;;;;;;32.12;31.76;99249.13;4358313;32;34580;-81
2023/06/20 09:55:34;;;;;;;12.15;6.40;;;;;;;31.92;32.33;99249.75;4358650;32;33907;-79
2023/06/20 09:58:04;;;;;;;9.25;5.90;;;;;;;31.01;32.43;99253.53;4346990;32;34165;-80
2023/06/20 10:00:32;;;;;;;9.05;5.97;;;;;;;31.47;30.45;99249.44;4360577;32;35049;-87
2023/06/20 10:03:03;;;;;;;9.73;6.15;;;;;;;31.72;31.16;99244.03;4345936;32;33623;-80
2023/06/20 10:05:33;;;;;;;17.40;6.93;;;;;;;31.95;31.78;99249.53;4343838;32;33717;-79
2023/06/20 10:08:01;;;;;;;11.45;6.75;;;;;;;32.26;31.59;99242.72;4359178;32;34968;-81
2023/06/20 10:10:28;;;;;;;10.55;6.40;;;;;;;32.20;32.25;99240.50;4346088;32;33387;-81
2023/06/20 10:12:56;;;;;;;9.98;6.10;;;;;;;32.28;30.01;99235.44;4357610;32;33708;-82
2023/06/20 10:15:24;;;;;;;8.82;6.18;;;;;;;31.92;32.18;99241.72;4342307;32;33873;-88
2023/06/20 10:17:51;;;;;;;8.70;5.90;;;;;;;32.23;32.45;99232.22;4345161;32;33758;-86
2023/06/20 10:20:37;;;;;;;10.63;5.37;;;;;;;32.39;30.63;99229.22;4357355;32;35144;-83
2023/06/20 10:23:10;;;;;;;9.88;5.80;;;;;;;32.65;30.02;99221.88;4362062;32;33907;-88
2023/06/20 10:25:51;;;;;;;10.10;6.37;;;;;;;32.58;29.27;99228.69;4359339;32;34639;-88
2023/06/20 10:28:20;;;;;;;13.18;6.10;;;;;;;32.53;29.93;99228.22;4346553;32;34004;-87
2023/06/20 10:30:53;;;;;;;11.35;6.10;;;;;;;32.61;28.95;99233.84;4345992;32;32801;-87
2023/06/20 10:33:39;;;;;;;10.18;6.07;;;;;;;32.93;28.41;99223.28;4358259;32;33709;-81
2023/06/20 10:36:11;;;;;;;10.60;6.25;;;;;;;32.38;29.27;99231.06;4345816;32;33350;-81
2023/06/20 10:38:51;;;;;;;9.57;6.03;;;;;;;32.42;30.64;99219.16;4334290;32;34144;-85
2023/06/20 10:41:23;;;;;;;9.60;5.60;;;;;;;32.34;29.06;99218.84;4358041;32;33939;-88
2023/06/20 10:43:55;;;;;;;11.18;6.32;;;;;;;32.22;31.64;99222.47;4359510;32;34681;-88
2023/06/20 10:46:34;;;;;;;8.20;5.75;;;;;;;32.40;29.33;99231.00;4359500;32;34592;-81
2023/06/20 10:49:03;;;;;;;8.23;5.87;;;;;;;32.87;28.18;99219.22;4357897;32;33764;-84
2023/06/20 10:51:31;;;;;;;10.70;5.80;;;;;;;32.56;29.16;99219.94;4359976;32;35030;-82
2023/06/20 10:54:11;;;;;;;9.18;5.53;;;;;;;32.70;31.09;99222.41;4360116;32;33744;-82
2023/06/20 10:56:39;;;;;;;10.77;6.75;;;;;;;32.73;31.28;99222.13;4359058;32;33644;-84
2023/06/20 10:59:15;;;;;;;10.70;6.03;;;;;;;32.88;29.58;99225.47;4359087;32;34080;-84
2023/06/20 11:01:43;;;;;;;11.50;6.00;;;;;;;32.89;28.77;99219.97;4354871;32;33897;-86
2023/06/20 11:04:12;;;;;;;9.48;6.28;;;;;;;32.41;28.40;99217.44;4359753;32;34006;-81
2023/06/20 11:06:40;;;;;;;13.95;6.07;;;;;;;32.08;29.41;99220.81;4346387;32;33589;-86
2023/06/20 11:09:18;;;;;;;9.52;5.95;;;;;;;32.32;31.03;99215.44;4360337;32;33796;-87
2023/06/20 11:11:47;;;;;;;12.68;6.43;;;;;;;32.42;30.48;99208.41;4350260;32;34119;-88
2023/06/20 11:14:20;;;;;;;8.25;5.87;;;;;;;32.27;33.67;99212.25;4343670;32;33807;-82
2023/06/20 11:16:49;;;;;;;10.35;6.10;;;;;;;32.51;32.92;99214.06;4358886;32;33838;-82
2023/06/20 11:19:23;;;;;;;8.55;5.60;;;;;;;32.54;30.65;99213.81;4360001;32;34747;-83
2023/06/20 11:21:54;;;;;;;10.63;5.43;;;;;;;32.81;28.41;99200.09;4363920;32;34331;-87
2023/06/20 11:24:24;;;;;;;10.20;5.70;;;;;;;32.38;28.52;99200.69;4349081;32;34624;-86
2023/06/20 11:26:51;;;;;;;8.35;5.15;;;;;;;32.09;29.95;99201.09;4342773;32;33642;-86
2023/06/20 11:29:19;;;;;;;9.50;5.80;;;;;;;32.28;29.35;99186.25;4357752;32;34942;-84
2023/06/20 11:31:46;;;;;;;10.65;6.07;;;;;;;32.63;27.26;99189.81;4357481;32;34819;-82
2023/06/20 11:34:16;;;;;;;11.25;6.12;;;;;;;32.03;29.24;99189.97;4356822;32;32540;-84
2023/06/20 11:36:44;;;;;;;10.95;6.30;;;;;;;31.65;29.69;99190.97;4357714;32;32746;-83
2023/06/20 11:39:15;;;;;;;10.50;6.03;;;;;;;31.80;29.68;99189.84;4358871;32;33955;-82